Automated Weather Station

Lita, Tayabas, Quezon


Readings

as of August 06, 2016 01:00 AM
Wind Speed
1.4 mm
Rainfall Amount
0 mm
Rainfall Intensity
0 mm
Air Temperature
mm
Wind Direction
293 mm
Air Humidity
88.4 mm

Data Source: PREDICT (Advanced Science and Technology Institute)

12 HOUR DATA

PREVIOUS DATA

From
To
DateTime Wind Speed Rain Amount Rain Intensity Air Temperature Air Pressure Wind Direction Air Humidity
October 29, 2013 11:00 AM 6.6 0 mm 0 28.4 995.62 24 61.5
October 29, 2013 10:45 AM 6.8 0.02 mm 0 27.4 995.88 20 65.3
October 29, 2013 10:30 AM 7.6 0 mm 0 28.4 996.15 32 61
October 29, 2013 10:15 AM 8.4 0 mm 0 28.3 996.28 18 59.8
October 29, 2013 10:00 AM 7.6 0 mm 0 28.6 996.42 19 61.1
October 29, 2013 09:45 AM 8 0 mm 0 27.6 996.42 18 62.4
October 29, 2013 09:30 AM 8.2 0 mm 0 28.2 996.68 32 61.2
October 29, 2013 09:15 AM 9.3 0 mm 0 28.3 996.82 27 60.8
October 29, 2013 09:00 AM 9.2 0 mm 0 28.1 996.82 18 60.3
October 29, 2013 08:45 AM 7.3 0 mm 0 28.1 996.82 23 62.9
October 29, 2013 08:30 AM 8 0 mm 0 27.6 996.55 35 65.2
October 29, 2013 08:15 AM 6.4 0 mm 0 26.8 996.42 20 68.3
October 29, 2013 08:00 AM 4.2 0 mm 0 26.6 996.55 8 68.4
October 29, 2013 07:45 AM 5 0 mm 0 26.9 996.42 354 67.8
October 29, 2013 07:00 AM 5.4 0 mm 0 25.8 996.02 1 71.8
October 29, 2013 06:00 AM 3.8 0 mm 0 24 995.35 338 78.2
October 29, 2013 05:00 AM 3.2 0.04 mm 0 23.8 994.68 342 81
October 29, 2013 04:00 AM 3.6 0 mm 0 23.9 994.15 339 77.5
October 29, 2013 03:00 AM 4.2 0 mm 0 24.1 994.42 346 77.4
October 29, 2013 02:00 AM 4.3 0 mm 0 24.4 994.55 353 76.2
October 29, 2013 01:00 AM 4.3 0 mm 0 24.6 995.22 344 76.1
October 29, 2013 12:00 AM 4.9 0 mm 0 24.9 996.02 5 76.8
October 28, 2013 11:00 PM 4.9 0 mm 0 25.1 996.82 357 77.8
October 28, 2013 10:00 PM 4.1 0 mm 0 24.9 996.55 344 76.7
October 28, 2013 09:00 PM 5.1 0 mm 0 25 996.42 349 75.8
October 28, 2013 08:00 PM 4.2 0 mm 0 25 996.02 351 75
October 28, 2013 07:00 PM 3.7 0 mm 0 25.2 995.48 345 73.4
October 28, 2013 06:00 PM 5.2 0 mm 0 25.5 994.82 356 74.1
October 28, 2013 05:00 PM 0 0 mm 0 0 0 0 0
October 28, 2013 04:00 PM 6.4 0 mm 0 27.8 994.02 8 62.8